Frances Anne — WDE8555 — position and weather

sailwx.info

Track history (hours):
 
Tides and Currents Weather Stations Pressure Air Temp Water Temp Dewpoint Dewpoint Depression Visibility Wind Speed Wind Dir Waves Ship Positions

Frances Anne

Owner: Frances Anne Inc., West Creek, NJ. More information available from US FCC via Universal Licensing System and Coast Guard Vessel Documentation Center.

Last reported at 2016-Feb-11 14:11 UTC. Time now 2016-Feb-11 14:59 UTC.
Position N 39°46' W 074°07'.

Type: Fishing. MMSI: 367406910.

Date/timePositionNaut miles runAvg speedWind from/ knotsBaromVisibWave heightAir tempDewpointWater temp
2016-Feb-11 14:11N 39°46' W 074°07'0 0.0
2016-Feb-11 13:29N 39°46' W 074°07'0 0.0
2016-Feb-11 12:29N 39°46' W 074°07'0 0.0
2016-Feb-11 11:29N 39°46' W 074°07'0 0.0
2016-Feb-11 09:23N 39°46' W 074°07'0 0.0
2016-Feb-11 08:29N 39°46' W 074°07'0 0.0
2016-Feb-11 07:17N 39°46' W 074°07'0 0.0
2016-Feb-11 06:29N 39°46' W 074°07'0 0.0
2016-Feb-11 05:29N 39°46' W 074°07'0 0.0
2016-Feb-11 04:17N 39°46' W 074°07'0 0.0
2016-Feb-11 03:29N 39°46' W 074°07'0 0.0
2016-Feb-11 02:29N 39°46' W 074°07'0 0.0
2016-Feb-11 01:29N 39°46' W 074°07'1 0.6
2016-Feb-11 00:33N 39°46' W 074°06'8 7.4
2016-Feb-10 23:31N 39°52' W 073°60'4 0.2
2016-Feb-10 02:27N 39°48' W 073°59'6 6.8
2016-Feb-10 01:33N 39°46' W 074°06'0 0.5
2016-Feb-10 00:28N 39°46' W 074°07'0 0.0
2016-Feb-09 23:28N 39°46' W 074°07'0 0.0
2016-Feb-09 22:28N 39°46' W 074°07'0 0.0
2016-Feb-09 21:28N 39°46' W 074°07'0 0.0
2016-Feb-09 20:28N 39°46' W 074°07'0 0.0
2016-Feb-09 19:28N 39°46' W 074°07'0 0.0
2016-Feb-09 18:28N 39°46' W 074°07'0 0.0
2016-Feb-09 17:22N 39°46' W 074°06'0 0.0
2016-Feb-09 16:28N 39°46' W 074°07'0 0.0
2016-Feb-09 15:28N 39°46' W 074°07'0 0.0
2016-Feb-09 14:28N 39°46' W 074°06'0 0.0
2016-Feb-09 13:16N 39°46' W 074°07'0 0.0
2016-Feb-09 12:28N 39°46' W 074°07'0 0.0
2016-Feb-09 11:28N 39°46' W 074°07'0 0.0
2016-Feb-09 10:16N 39°46' W 074°07'0 0.0
2016-Feb-09 09:28N 39°46' W 074°07'0 0.0
2016-Feb-09 08:28N 39°46' W 074°07'0 0.0
2016-Feb-09 07:28N 39°46' W 074°07'0 0.0
2016-Feb-09 06:22N 39°46' W 074°07'0 0.0
2016-Feb-09 05:28N 39°46' W 074°07'0 0.0
2016-Feb-09 04:28N 39°46' W 074°07'0 0.0
2016-Feb-09 03:22N 39°46' W 074°07'0 0.0
2016-Feb-09 02:28N 39°46' W 074°07'0 0.0
2016-Feb-09 01:28N 39°46' W 074°07'0 0.0
2016-Feb-09 00:28N 39°46' W 074°07'0 0.0
2016-Feb-08 23:28N 39°46' W 074°07'0 0.0
2016-Feb-08 22:28N 39°46' W 074°07'0 0.0
2016-Feb-08 21:28N 39°46' W 074°07'0 0.0
2016-Feb-08 20:28N 39°46' W 074°07'0 0.0
2016-Feb-08 19:28N 39°46' W 074°07'0 0.0
2016-Feb-08 18:10N 39°46' W 074°07'0 0.0
2016-Feb-08 17:28N 39°46' W 074°07'0 0.0
2016-Feb-08 16:28N 39°46' W 074°07'0 0.0
2016-Feb-08 15:28N 39°46' W 074°07'0 0.0
2016-Feb-08 14:22N 39°46' W 074°07'0 0.0
2016-Feb-08 13:28N 39°46' W 074°07'0 0.0
2016-Feb-08 12:28N 39°46' W 074°07'0 0.0
2016-Feb-08 11:28N 39°46' W 074°07'0 0.0
2016-Feb-08 10:16N 39°46' W 074°07'0 0.0
2016-Feb-08 09:16N 39°46' W 074°07'0 0.0
2016-Feb-08 08:28N 39°46' W 074°07'0 0.0
2016-Feb-08 07:10N 39°46' W 074°07'0 0.0
2016-Feb-08 05:28N 39°46' W 074°07'0 0.0
2016-Feb-08 03:10N 39°46' W 074°07'0 0.0
2016-Feb-08 02:22N 39°46' W 074°07'0 0.0
2016-Feb-08 01:22N 39°46' W 074°07'0 0.0
2016-Feb-08 00:28N 39°46' W 074°07'0 0.0
2016-Feb-07 23:28N 39°46' W 074°07'0 0.0
2016-Feb-07 22:22N 39°46' W 074°07'0 0.0
2016-Feb-07 21:28N 39°46' W 074°07'1 1.1
2016-Feb-07 20:33N 39°46' W 074°05'2 0.1
2016-Feb-06 23:33N 39°47' W 074°03'3 2.9
2016-Feb-06 22:29N 39°46' W 074°07'0 0.0
2016-Feb-06 21:29N 39°46' W 074°07'0 0.0
2016-Feb-06 20:23N 39°46' W 074°07'0 0.0
2016-Feb-06 19:29N 39°46' W 074°07'0 0.0
2016-Feb-06 18:29N 39°46' W 074°07'0 0.0
2016-Feb-06 17:23N 39°46' W 074°07'0 0.0
2016-Feb-06 16:29N 39°46' W 074°07'0 0.0
2016-Feb-06 15:29N 39°46' W 074°07'0 0.0
2016-Feb-06 14:17N 39°46' W 074°07'0 0.0
2016-Feb-06 13:17N 39°46' W 074°07'0 0.0
2016-Feb-06 12:29N 39°46' W 074°07'0 0.0
2016-Feb-06 11:29N 39°46' W 074°07'0 0.0
2016-Feb-06 10:29N 39°46' W 074°07'0 0.0
2016-Feb-06 09:11N 39°46' W 074°07'0 0.0
2016-Feb-06 08:23N 39°46' W 074°07'0 0.0
2016-Feb-06 07:29N 39°46' W 074°07'0 0.0
2016-Feb-06 06:23N 39°46' W 074°07'0 0.0
2016-Feb-06 05:23N 39°46' W 074°07'0 0.0
2016-Feb-06 04:29N 39°46' W 074°07'0 0.0
2016-Feb-06 03:29N 39°46' W 074°07'0 0.0
2016-Feb-06 02:29N 39°46' W 074°07'0 0.0
2016-Feb-06 01:23N 39°46' W 074°07'0 0.0
2016-Feb-06 00:29N 39°46' W 074°06'0 0.0
2016-Feb-05 23:29N 39°46' W 074°07'0 0.0
2016-Feb-05 22:29N 39°46' W 074°07'0 0.0
2016-Feb-05 21:29N 39°46' W 074°07'0 0.0
2016-Feb-05 20:29N 39°46' W 074°07'0 0.0
2016-Feb-05 19:29N 39°46' W 074°07'0 0.1
2016-Feb-05 18:22N 39°46' W 074°07'1 1.0
2016-Feb-05 17:34N 39°46' W 074°06'8 0.4
2016-Feb-04 21:21N 39°49' W 073°56'7 8.3
2016-Feb-04 20:31N 39°46' W 074°04'2 2.0
2016-Feb-04 19:33N 39°46' W 074°07'0 0.0
2016-Feb-04 18:33N 39°46' W 074°07'0 0.0
2016-Feb-04 17:33N 39°46' W 074°07'0 0.0
2016-Feb-04 16:33N 39°46' W 074°07'0 0.0
2016-Feb-04 15:21N 39°46' W 074°07'0 0.0
2016-Feb-04 14:33N 39°46' W 074°07'0 0.0
2016-Feb-04 13:33N 39°46' W 074°07'0 0.0
2016-Feb-04 12:15N 39°46' W 074°07'0 0.0
2016-Feb-04 11:15N 39°46' W 074°07'0 0.0
2016-Feb-04 10:33N 39°46' W 074°07'0 0.0
2016-Feb-04 09:27N 39°46' W 074°07'0 0.0
2016-Feb-04 08:33N 39°46' W 074°07'0 0.0
2016-Feb-04 07:15N 39°46' W 074°07'0 0.0
2016-Feb-04 06:27N 39°46' W 074°07'0 0.0
2016-Feb-04 05:33N 39°46' W 074°07'0 0.0
2016-Feb-04 04:33N 39°46' W 074°07'0 0.0
2016-Feb-04 03:27N 39°46' W 074°07'0 0.0
2016-Feb-04 02:33N 39°46' W 074°07'0 0.0
2016-Feb-04 01:33N 39°46' W 074°07'0 0.0
2016-Feb-04 00:30N 39°46' W 074°07'0 0.0
2016-Feb-03 23:30N 39°46' W 074°07'0 0.0
2016-Feb-03 22:30N 39°46' W 074°07'0 0.0
2016-Feb-03 21:30N 39°46' W 074°07'0 0.0
2016-Feb-03 20:30N 39°46' W 074°07'0 0.0
2016-Feb-03 18:18N 39°46' W 074°07'0 0.0
2016-Feb-03 17:03N 39°46' W 074°07'0 0.0
2016-Feb-03 11:18N 39°46' W 074°07'0 0.0
2016-Feb-03 10:30N 39°46' W 074°07'0 0.0
2016-Feb-03 09:30N 39°46' W 074°07'0 0.0
2016-Feb-03 08:30N 39°46' W 074°07'0 0.0
2016-Feb-03 07:30N 39°46' W 074°07'0 0.0
2016-Feb-03 05:33N 39°46' W 074°07'0 0.0
2016-Feb-03 04:33N 39°46' W 074°07'0 0.0
2016-Feb-03 03:33N 39°46' W 074°07'0 0.0
2016-Feb-03 02:33N 39°46' W 074°07'0 0.0
2016-Feb-03 01:27N 39°46' W 074°07'0 0.0
2016-Feb-03 00:21N 39°46' W 074°07'0 0.0
2016-Feb-02 23:21N 39°46' W 074°07'0 0.0
2016-Feb-02 21:33N 39°46' W 074°07'0 0.0
2016-Feb-02 20:33N 39°46' W 074°07'0 0.0
2016-Feb-02 19:27N 39°46' W 074°07'0 0.0
2016-Feb-02 18:21N 39°46' W 074°07'0 0.0
2016-Feb-02 17:33N 39°46' W 074°07'0 0.0
2016-Feb-02 16:30N 39°46' W 074°07'0 0.0
2016-Feb-02 15:18N 39°46' W 074°07'0 0.0
2016-Feb-02 14:30N 39°46' W 074°07'0 0.0
2016-Feb-02 13:15N 39°46' W 074°07'0 0.0
2016-Feb-02 12:27N 39°46' W 074°07'0 0.0
2016-Feb-02 11:18N 39°46' W 074°07'0 0.0
2016-Feb-02 10:30N 39°46' W 074°07'0 0.0
2016-Feb-02 09:30N 39°46' W 074°07'0 0.0
2016-Feb-02 08:24N 39°46' W 074°07'0 0.0
2016-Feb-02 07:30N 39°46' W 074°07'0 0.0
2016-Feb-02 06:30N 39°46' W 074°07'0 0.0
2016-Feb-02 05:30N 39°46' W 074°07'0 0.0
2016-Feb-02 04:30N 39°46' W 074°07'0 0.0
2016-Feb-02 03:30N 39°46' W 074°07'0 0.0
2016-Feb-02 02:30N 39°46' W 074°07'0 0.0
2016-Feb-02 01:30N 39°46' W 074°07'0 0.0
2016-Feb-02 00:30N 39°46' W 074°07'0 0.0
2016-Feb-01 23:24N 39°46' W 074°07'0 0.0
2016-Feb-01 22:18N 39°46' W 074°07'0 0.0
2016-Feb-01 21:30N 39°46' W 074°07'0 0.0
2016-Feb-01 20:30N 39°46' W 074°06'0 0.0
2016-Feb-01 19:30N 39°46' W 074°07'0 0.0
2016-Feb-01 18:12N 39°46' W 074°07'0 0.0
2016-Feb-01 17:30N 39°46' W 074°07'0 0.0
2016-Feb-01 16:30N 39°46' W 074°07'0 0.0
2016-Feb-01 15:30N 39°46' W 074°07'0 0.0
2016-Feb-01 14:30N 39°46' W 074°07'  
Track history (hours):
 
Tides and Currents Weather Stations Pressure Air Temp Water Temp Dewpoint Dewpoint Depression Visibility Wind Speed Wind Dir Waves Ship Positions

Frances Anne

Owner: Frances Anne Inc., West Creek, NJ. More information available from US FCC via Universal Licensing System and Coast Guard Vessel Documentation Center.

Last reported at 2016-Feb-11 14:11 UTC. Time now 2016-Feb-11 14:59 UTC.
Position N 39°46' W 074°07'.

Type: Fishing. MMSI: 367406910.

Date/timePositionNaut miles runAvg speedWind from/ knotsBaromVisibWave heightAir tempDewpointWater temp
2016-Feb-11 14:11N 39°46' W 074°07'0 0.0
2016-Feb-11 13:29N 39°46' W 074°07'0 0.0
2016-Feb-11 12:29N 39°46' W 074°07'0 0.0
2016-Feb-11 11:29N 39°46' W 074°07'0 0.0
2016-Feb-11 09:23N 39°46' W 074°07'0 0.0
2016-Feb-11 08:29N 39°46' W 074°07'0 0.0
2016-Feb-11 07:17N 39°46' W 074°07'0 0.0
2016-Feb-11 06:29N 39°46' W 074°07'0 0.0
2016-Feb-11 05:29N 39°46' W 074°07'0 0.0
2016-Feb-11 04:17N 39°46' W 074°07'0 0.0
2016-Feb-11 03:29N 39°46' W 074°07'0 0.0
2016-Feb-11 02:29N 39°46' W 074°07'0 0.0
2016-Feb-11 01:29N 39°46' W 074°07'1 0.6
2016-Feb-11 00:33N 39°46' W 074°06'8 7.4
2016-Feb-10 23:31N 39°52' W 073°60'4 0.2
2016-Feb-10 02:27N 39°48' W 073°59'6 6.8
2016-Feb-10 01:33N 39°46' W 074°06'0 0.5
2016-Feb-10 00:28N 39°46' W 074°07'0 0.0
2016-Feb-09 23:28N 39°46' W 074°07'0 0.0
2016-Feb-09 22:28N 39°46' W 074°07'0 0.0
2016-Feb-09 21:28N 39°46' W 074°07'0 0.0
2016-Feb-09 20:28N 39°46' W 074°07'0 0.0
2016-Feb-09 19:28N 39°46' W 074°07'0 0.0
2016-Feb-09 18:28N 39°46' W 074°07'0 0.0
2016-Feb-09 17:22N 39°46' W 074°06'0 0.0
2016-Feb-09 16:28N 39°46' W 074°07'0 0.0
2016-Feb-09 15:28N 39°46' W 074°07'0 0.0
2016-Feb-09 14:28N 39°46' W 074°06'0 0.0
2016-Feb-09 13:16N 39°46' W 074°07'0 0.0
2016-Feb-09 12:28N 39°46' W 074°07'0 0.0
2016-Feb-09 11:28N 39°46' W 074°07'0 0.0
2016-Feb-09 10:16N 39°46' W 074°07'0 0.0
2016-Feb-09 09:28N 39°46' W 074°07'0 0.0
2016-Feb-09 08:28N 39°46' W 074°07'0 0.0
2016-Feb-09 07:28N 39°46' W 074°07'0 0.0
2016-Feb-09 06:22N 39°46' W 074°07'0 0.0
2016-Feb-09 05:28N 39°46' W 074°07'0 0.0
2016-Feb-09 04:28N 39°46' W 074°07'0 0.0
2016-Feb-09 03:22N 39°46' W 074°07'0 0.0
2016-Feb-09 02:28N 39°46' W 074°07'0 0.0
2016-Feb-09 01:28N 39°46' W 074°07'0 0.0
2016-Feb-09 00:28N 39°46' W 074°07'0 0.0
2016-Feb-08 23:28N 39°46' W 074°07'0 0.0
2016-Feb-08 22:28N 39°46' W 074°07'0 0.0
2016-Feb-08 21:28N 39°46' W 074°07'0 0.0
2016-Feb-08 20:28N 39°46' W 074°07'0 0.0
2016-Feb-08 19:28N 39°46' W 074°07'0 0.0
2016-Feb-08 18:10N 39°46' W 074°07'0 0.0
2016-Feb-08 17:28N 39°46' W 074°07'0 0.0
2016-Feb-08 16:28N 39°46' W 074°07'0 0.0
2016-Feb-08 15:28N 39°46' W 074°07'0 0.0
2016-Feb-08 14:22N 39°46' W 074°07'0 0.0
2016-Feb-08 13:28N 39°46' W 074°07'0 0.0
2016-Feb-08 12:28N 39°46' W 074°07'0 0.0
2016-Feb-08 11:28N 39°46' W 074°07'0 0.0
2016-Feb-08 10:16N 39°46' W 074°07'0 0.0
2016-Feb-08 09:16N 39°46' W 074°07'0 0.0
2016-Feb-08 08:28N 39°46' W 074°07'0 0.0
2016-Feb-08 07:10N 39°46' W 074°07'0 0.0
2016-Feb-08 05:28N 39°46' W 074°07'0 0.0
2016-Feb-08 03:10N 39°46' W 074°07'0 0.0
2016-Feb-08 02:22N 39°46' W 074°07'0 0.0
2016-Feb-08 01:22N 39°46' W 074°07'0 0.0
2016-Feb-08 00:28N 39°46' W 074°07'0 0.0
2016-Feb-07 23:28N 39°46' W 074°07'0 0.0
2016-Feb-07 22:22N 39°46' W 074°07'0 0.0
2016-Feb-07 21:28N 39°46' W 074°07'1 1.1
2016-Feb-07 20:33N 39°46' W 074°05'2 0.1
2016-Feb-06 23:33N 39°47' W 074°03'3 2.9
2016-Feb-06 22:29N 39°46' W 074°07'0 0.0
2016-Feb-06 21:29N 39°46' W 074°07'0 0.0
2016-Feb-06 20:23N 39°46' W 074°07'0 0.0
2016-Feb-06 19:29N 39°46' W 074°07'0 0.0
2016-Feb-06 18:29N 39°46' W 074°07'0 0.0
2016-Feb-06 17:23N 39°46' W 074°07'0 0.0
2016-Feb-06 16:29N 39°46' W 074°07'0 0.0
2016-Feb-06 15:29N 39°46' W 074°07'0 0.0
2016-Feb-06 14:17N 39°46' W 074°07'0 0.0
2016-Feb-06 13:17N 39°46' W 074°07'0 0.0
2016-Feb-06 12:29N 39°46' W 074°07'0 0.0
2016-Feb-06 11:29N 39°46' W 074°07'0 0.0
2016-Feb-06 10:29N 39°46' W 074°07'0 0.0
2016-Feb-06 09:11N 39°46' W 074°07'0 0.0
2016-Feb-06 08:23N 39°46' W 074°07'0 0.0
2016-Feb-06 07:29N 39°46' W 074°07'0 0.0
2016-Feb-06 06:23N 39°46' W 074°07'0 0.0
2016-Feb-06 05:23N 39°46' W 074°07'0 0.0
2016-Feb-06 04:29N 39°46' W 074°07'0 0.0
2016-Feb-06 03:29N 39°46' W 074°07'0 0.0
2016-Feb-06 02:29N 39°46' W 074°07'0 0.0
2016-Feb-06 01:23N 39°46' W 074°07'0 0.0
2016-Feb-06 00:29N 39°46' W 074°06'0 0.0
2016-Feb-05 23:29N 39°46' W 074°07'0 0.0
2016-Feb-05 22:29N 39°46' W 074°07'0 0.0
2016-Feb-05 21:29N 39°46' W 074°07'0 0.0
2016-Feb-05 20:29N 39°46' W 074°07'0 0.0
2016-Feb-05 19:29N 39°46' W 074°07'0 0.1
2016-Feb-05 18:22N 39°46' W 074°07'1 1.0
2016-Feb-05 17:34N 39°46' W 074°06'8 0.4
2016-Feb-04 21:21N 39°49' W 073°56'7 8.3
2016-Feb-04 20:31N 39°46' W 074°04'2 2.0
2016-Feb-04 19:33N 39°46' W 074°07'0 0.0
2016-Feb-04 18:33N 39°46' W 074°07'0 0.0
2016-Feb-04 17:33N 39°46' W 074°07'0 0.0
2016-Feb-04 16:33N 39°46' W 074°07'0 0.0
2016-Feb-04 15:21N 39°46' W 074°07'0 0.0
2016-Feb-04 14:33N 39°46' W 074°07'0 0.0
2016-Feb-04 13:33N 39°46' W 074°07'0 0.0
2016-Feb-04 12:15N 39°46' W 074°07'0 0.0
2016-Feb-04 11:15N 39°46' W 074°07'0 0.0
2016-Feb-04 10:33N 39°46' W 074°07'0 0.0
2016-Feb-04 09:27N 39°46' W 074°07'0 0.0
2016-Feb-04 08:33N 39°46' W 074°07'0 0.0
2016-Feb-04 07:15N 39°46' W 074°07'0 0.0
2016-Feb-04 06:27N 39°46' W 074°07'0 0.0
2016-Feb-04 05:33N 39°46' W 074°07'0 0.0
2016-Feb-04 04:33N 39°46' W 074°07'0 0.0
2016-Feb-04 03:27N 39°46' W 074°07'0 0.0
2016-Feb-04 02:33N 39°46' W 074°07'0 0.0
2016-Feb-04 01:33N 39°46' W 074°07'0 0.0
2016-Feb-04 00:30N 39°46' W 074°07'0 0.0
2016-Feb-03 23:30N 39°46' W 074°07'0 0.0
2016-Feb-03 22:30N 39°46' W 074°07'0 0.0
2016-Feb-03 21:30N 39°46' W 074°07'0 0.0
2016-Feb-03 20:30N 39°46' W 074°07'0 0.0
2016-Feb-03 18:18N 39°46' W 074°07'0 0.0
2016-Feb-03 17:03N 39°46' W 074°07'0 0.0
2016-Feb-03 11:18N 39°46' W 074°07'0 0.0
2016-Feb-03 10:30N 39°46' W 074°07'0 0.0
2016-Feb-03 09:30N 39°46' W 074°07'0 0.0
2016-Feb-03 08:30N 39°46' W 074°07'0 0.0
2016-Feb-03 07:30N 39°46' W 074°07'0 0.0
2016-Feb-03 05:33N 39°46' W 074°07'0 0.0
2016-Feb-03 04:33N 39°46' W 074°07'0 0.0
2016-Feb-03 03:33N 39°46' W 074°07'0 0.0
2016-Feb-03 02:33N 39°46' W 074°07'0 0.0
2016-Feb-03 01:27N 39°46' W 074°07'0 0.0
2016-Feb-03 00:21N 39°46' W 074°07'0 0.0
2016-Feb-02 23:21N 39°46' W 074°07'0 0.0
2016-Feb-02 21:33N 39°46' W 074°07'0 0.0
2016-Feb-02 20:33N 39°46' W 074°07'0 0.0
2016-Feb-02 19:27N 39°46' W 074°07'0 0.0
2016-Feb-02 18:21N 39°46' W 074°07'0 0.0
2016-Feb-02 17:33N 39°46' W 074°07'0 0.0
2016-Feb-02 16:30N 39°46' W 074°07'0 0.0
2016-Feb-02 15:18N 39°46' W 074°07'0 0.0
2016-Feb-02 14:30N 39°46' W 074°07'0 0.0
2016-Feb-02 13:15N 39°46' W 074°07'0 0.0
2016-Feb-02 12:27N 39°46' W 074°07'0 0.0
2016-Feb-02 11:18N 39°46' W 074°07'0 0.0
2016-Feb-02 10:30N 39°46' W 074°07'0 0.0
2016-Feb-02 09:30N 39°46' W 074°07'0 0.0
2016-Feb-02 08:24N 39°46' W 074°07'0 0.0
2016-Feb-02 07:30N 39°46' W 074°07'0 0.0
2016-Feb-02 06:30N 39°46' W 074°07'0 0.0
2016-Feb-02 05:30N 39°46' W 074°07'0 0.0
2016-Feb-02 04:30N 39°46' W 074°07'0 0.0
2016-Feb-02 03:30N 39°46' W 074°07'0 0.0
2016-Feb-02 02:30N 39°46' W 074°07'0 0.0
2016-Feb-02 01:30N 39°46' W 074°07'0 0.0
2016-Feb-02 00:30N 39°46' W 074°07'0 0.0
2016-Feb-01 23:24N 39°46' W 074°07'0 0.0
2016-Feb-01 22:18N 39°46' W 074°07'0 0.0
2016-Feb-01 21:30N 39°46' W 074°07'0 0.0
2016-Feb-01 20:30N 39°46' W 074°06'0 0.0
2016-Feb-01 19:30N 39°46' W 074°07'0 0.0
2016-Feb-01 18:12N 39°46' W 074°07'0 0.0
2016-Feb-01 17:30N 39°46' W 074°07'0 0.0
2016-Feb-01 16:30N 39°46' W 074°07'0 0.0
2016-Feb-01 15:30N 39°46' W 074°07'0 0.0
2016-Feb-01 14:30N 39°46' W 074°07'  

Dump ship's entire track history